createdAt,value
2022-11-05T00:02:22.705Z,2.20
2022-11-05T00:05:31.588Z,2.20
2022-11-05T00:08:39.408Z,2.00
2022-11-05T00:11:43.350Z,1.60
2022-11-05T00:14:51.456Z,1.20
2022-11-05T00:17:41.350Z,1.40
2022-11-05T00:20:30.795Z,1.20
2022-11-05T00:23:38.685Z,1.40
2022-11-05T00:26:28.150Z,1.30
2022-11-05T00:29:17.693Z,1.60
2022-11-05T00:32:07.720Z,1.60
2022-11-05T00:34:57.271Z,1.60
2022-11-05T00:37:50.005Z,1.60
2022-11-05T00:40:40.147Z,1.80
2022-11-05T00:43:48.001Z,1.70
2022-11-05T00:46:37.545Z,2.00
2022-11-05T00:49:30.052Z,1.70
2022-11-05T00:52:37.958Z,1.60
2022-11-05T00:55:32.733Z,1.90
2022-11-05T00:58:23.435Z,1.90
2022-11-05T01:01:12.721Z,1.70
2022-11-05T01:04:02.299Z,1.80
2022-11-05T01:06:51.822Z,1.40
2022-11-05T01:09:41.258Z,1.30
2022-11-05T01:12:31.786Z,1.60
2022-11-05T01:15:21.629Z,1.50
2022-11-05T01:18:11.444Z,2.00
2022-11-05T01:21:09.302Z,1.70
2022-11-05T01:23:58.759Z,1.50
2022-11-05T01:26:48.237Z,1.30
2022-11-05T01:29:37.673Z,1.40
2022-11-05T01:32:27.223Z,1.50
2022-11-05T01:35:18.523Z,1.50
2022-11-05T01:38:07.948Z,1.80
2022-11-05T01:40:57.493Z,1.50
2022-11-05T01:43:49.325Z,1.50
2022-11-05T01:46:43.679Z,1.40
2022-11-05T01:49:34.184Z,1.70
2022-11-05T01:52:25.333Z,2.00
2022-11-05T01:55:19.644Z,1.80
2022-11-05T01:58:13.283Z,1.60
2022-11-05T02:01:03.173Z,1.50
2022-11-05T02:03:56.829Z,1.60
2022-11-05T02:06:47.066Z,1.90
2022-11-05T02:09:43.836Z,1.60
2022-11-05T02:12:34.457Z,1.70
2022-11-05T02:15:40.006Z,1.50
2022-11-05T02:18:41.665Z,1.50
2022-11-05T02:21:58.005Z,1.30
2022-11-05T02:25:27.200Z,1.40
2022-11-05T02:28:35.121Z,1.30
2022-11-05T02:31:33.059Z,1.10
2022-11-05T02:34:29.803Z,1.50
2022-11-05T02:37:32.299Z,1.60
2022-11-05T02:40:29.012Z,1.30
2022-11-05T02:43:30.274Z,1.50
2022-11-05T02:46:31.527Z,1.30
2022-11-05T02:49:33.186Z,1.20
2022-11-05T02:52:32.359Z,1.10
2022-11-05T02:55:28.427Z,1.10
2022-11-05T02:58:17.879Z,1.40
2022-11-05T03:01:09.516Z,1.20
2022-11-05T03:04:00.971Z,1.10
2022-11-05T03:07:03.001Z,1.00
2022-11-05T03:10:11.357Z,0.90
2022-11-05T03:13:12.656Z,0.90
2022-11-05T03:16:07.512Z,0.80
2022-11-05T03:19:04.885Z,1.10
2022-11-05T03:22:00.195Z,1.00
2022-11-05T03:24:55.863Z,0.80
2022-11-05T03:27:50.199Z,0.90
2022-11-05T03:30:42.385Z,0.70
2022-11-05T03:33:36.510Z,1.00
2022-11-05T03:36:30.956Z,0.60
2022-11-05T03:39:28.868Z,0.70
2022-11-05T03:42:21.500Z,0.80
2022-11-05T03:45:16.580Z,0.60
2022-11-05T03:48:09.944Z,0.80
2022-11-05T03:51:04.359Z,0.70
2022-11-05T03:53:57.552Z,1.10
2022-11-05T03:56:58.702Z,0.90
2022-11-05T03:59:50.516Z,1.00
2022-11-05T04:02:40.208Z,0.80
2022-11-05T04:05:29.935Z,1.00
2022-11-05T04:08:37.838Z,0.90
2022-11-05T04:11:57.266Z,0.70
2022-11-05T04:14:46.892Z,0.90
2022-11-05T04:17:36.472Z,0.80
2022-11-05T04:20:58.714Z,0.80
2022-11-05T04:24:06.363Z,0.80
2022-11-05T04:26:55.795Z,0.50
2022-11-05T04:30:03.607Z,0.70
2022-11-05T04:33:01.378Z,0.60
2022-11-05T04:35:50.435Z,0.60
2022-11-05T04:38:39.775Z,0.50
2022-11-05T04:41:29.319Z,0.60
2022-11-05T04:44:18.695Z,0.80
2022-11-05T04:47:08.207Z,0.70
2022-11-05T04:49:57.594Z,0.60
2022-11-05T04:52:47.179Z,0.60
2022-11-05T04:55:36.652Z,0.50
2022-11-05T04:58:26.151Z,0.60
2022-11-05T05:01:17.789Z,0.60
2022-11-05T05:04:07.146Z,0.90
2022-11-05T05:06:56.701Z,0.70
2022-11-05T05:09:46.217Z,0.80
2022-11-05T05:12:36.179Z,0.60
2022-11-05T05:15:25.700Z,0.60
2022-11-05T05:18:15.205Z,0.50
2022-11-05T05:21:23.121Z,0.60
2022-11-05T05:24:14.640Z,0.50
2022-11-05T05:27:03.913Z,0.50
2022-11-05T05:29:53.289Z,0.50
2022-11-05T05:32:42.828Z,0.50
2022-11-05T05:35:32.241Z,0.50
2022-11-05T05:38:21.740Z,0.80
2022-11-05T05:41:11.187Z,0.30
2022-11-05T05:44:01.088Z,0.40
2022-11-05T05:46:50.535Z,0.40
2022-11-05T05:49:40.116Z,0.30
2022-11-05T05:52:29.537Z,0.30
2022-11-05T05:55:19.066Z,0.20
2022-11-05T05:58:08.534Z,0.30
2022-11-05T06:01:01.606Z,0.20
2022-11-05T06:03:56.323Z,0.10
2022-11-05T06:06:46.813Z,0.10
2022-11-05T06:09:35.798Z,0.20
2022-11-05T06:12:25.289Z,0.10
2022-11-05T06:15:15.035Z,0.10
2022-11-05T06:18:04.807Z,0.20
2022-11-05T06:20:55.364Z,0.10
2022-11-05T06:26:34.299Z,0.10
2022-11-05T06:29:23.745Z,0.20
2022-11-05T06:32:13.259Z,0.20
2022-11-05T06:35:02.760Z,0.10
2022-11-05T06:37:52.250Z,0.20
2022-11-05T06:40:41.827Z,0.10
2022-11-05T06:43:31.296Z,0.10
2022-11-05T06:46:20.991Z,0.20
2022-11-05T06:49:10.465Z,0.20
2022-11-05T06:51:59.973Z,0.10
2022-11-05T06:54:49.550Z,0.20
2022-11-05T06:57:39.208Z,0.20
2022-11-05T07:00:28.789Z,0.20
2022-11-05T07:03:18.409Z,0.20
2022-11-05T07:06:08.597Z,0.30
2022-11-05T07:08:58.765Z,0.10
2022-11-05T07:11:47.822Z,0.20
2022-11-05T07:14:37.357Z,0.10
2022-11-05T07:17:28.163Z,0.20
2022-11-05T07:20:17.835Z,0.10
2022-11-05T07:23:10.910Z,0.10
2022-11-05T07:26:01.150Z,0.10
2022-11-05T07:28:50.538Z,0.20
2022-11-05T07:31:39.951Z,0.20
2022-11-05T07:34:29.370Z,0.10
2022-11-05T07:37:18.839Z,0.10
2022-11-05T07:40:10.621Z,0.10
2022-11-05T07:43:01.905Z,0.10
2022-11-05T07:45:50.957Z,0.20
2022-11-05T07:48:41.022Z,0.10
2022-11-05T07:51:30.045Z,0.20
2022-11-05T07:54:19.582Z,0.10
2022-11-05T07:57:09.107Z,0.10
2022-11-05T07:59:58.672Z,0.10
2022-11-05T08:03:02.309Z,0.10
2022-11-05T08:05:56.568Z,0.20
2022-11-05T08:08:47.127Z,0.10
2022-11-05T08:11:36.652Z,0.10
2022-11-05T08:14:26.130Z,0.10
2022-11-05T08:17:18.539Z,0.20
2022-11-05T08:20:10.145Z,0.10
2022-11-05T08:22:59.747Z,0.10
2022-11-05T08:25:49.141Z,0.20
2022-11-05T08:28:38.680Z,0.20
2022-11-05T08:31:28.831Z,0.20
2022-11-05T08:34:18.333Z,0.20
2022-11-05T08:37:11.370Z,0.20
2022-11-05T08:40:00.865Z,0.10
2022-11-05T08:42:50.405Z,0.10
2022-11-05T08:45:41.108Z,0.30
2022-11-05T08:48:30.107Z,0.30
2022-11-05T08:51:19.668Z,0.30
2022-11-05T08:54:09.366Z,0.30
2022-11-05T08:56:58.832Z,0.50
2022-11-05T08:59:48.232Z,0.30
2022-11-05T09:02:37.703Z,0.30
2022-11-05T09:05:27.108Z,0.40
2022-11-05T09:08:18.546Z,0.70
2022-11-05T09:11:08.751Z,0.50
2022-11-05T09:13:58.234Z,0.40
2022-11-05T09:16:47.845Z,0.30
2022-11-05T09:19:40.081Z,0.20
2022-11-05T09:22:29.983Z,0.20
2022-11-05T09:25:19.432Z,0.40
2022-11-05T09:28:15.917Z,0.40
2022-11-05T09:31:09.485Z,0.20
2022-11-05T09:33:58.703Z,0.30
2022-11-05T09:36:48.252Z,0.30
2022-11-05T09:39:37.747Z,0.30
2022-11-05T09:42:33.288Z,0.40
2022-11-05T09:45:27.121Z,0.40
2022-11-05T09:48:19.065Z,0.50
2022-11-05T09:51:18.072Z,0.50
2022-11-05T09:54:13.473Z,0.50
2022-11-05T09:57:06.536Z,0.50
2022-11-05T09:59:59.112Z,0.50
2022-11-05T10:02:51.415Z,0.50
2022-11-05T10:05:41.594Z,0.80
2022-11-05T10:08:40.078Z,1.20
2022-11-05T10:11:35.728Z,1.80
2022-11-05T10:14:28.631Z,2.30
2022-11-05T10:17:23.778Z,2.40
2022-11-05T10:20:20.282Z,2.20
2022-11-05T10:23:13.656Z,2.70
2022-11-05T10:26:06.517Z,2.50
2022-11-05T10:28:56.231Z,2.50
2022-11-05T10:31:45.693Z,3.20
2022-11-05T10:34:37.476Z,2.80
2022-11-05T10:37:28.695Z,3.50
2022-11-05T10:40:32.850Z,3.30
2022-11-05T10:43:30.837Z,2.70
2022-11-05T10:46:28.509Z,3.00
2022-11-05T10:49:31.306Z,3.50
2022-11-05T10:52:24.494Z,3.10
2022-11-05T10:55:24.684Z,3.30
2022-11-05T10:58:21.312Z,3.30
2022-11-05T11:01:12.290Z,3.40
2022-11-05T11:04:16.260Z,2.80
2022-11-05T11:07:06.053Z,3.50
2022-11-05T11:09:55.583Z,4.30
2022-11-05T11:12:45.073Z,3.60
2022-11-05T11:15:36.579Z,4.00
2022-11-05T11:18:31.517Z,3.10
2022-11-05T11:21:26.494Z,4.30
2022-11-05T11:24:22.635Z,4.10
2022-11-05T11:27:15.354Z,3.70
2022-11-05T11:30:07.193Z,3.90
2022-11-05T11:33:04.464Z,2.90
2022-11-05T11:36:00.050Z,3.00
2022-11-05T11:38:49.639Z,2.90
2022-11-05T11:41:43.280Z,3.20
2022-11-05T11:44:36.084Z,3.40
2022-11-05T11:47:27.779Z,3.50
2022-11-05T11:50:35.083Z,3.60
2022-11-05T11:53:29.689Z,3.20
2022-11-05T11:56:20.787Z,3.60
2022-11-05T11:59:35.132Z,3.70
2022-11-05T12:03:11.902Z,3.50
2022-11-05T12:06:25.145Z,3.30
2022-11-05T12:09:24.443Z,3.30
2022-11-05T12:12:16.395Z,3.40
2022-11-05T12:15:24.902Z,3.80
2022-11-05T12:18:19.665Z,3.70
2022-11-05T12:21:34.574Z,3.30
2022-11-05T12:24:46.012Z,3.60
2022-11-05T12:27:48.724Z,3.40
2022-11-05T12:30:48.343Z,3.20
2022-11-05T12:33:49.871Z,3.70
2022-11-05T12:36:57.738Z,3.10
2022-11-05T12:40:01.124Z,3.10
2022-11-05T12:43:10.529Z,3.30
2022-11-05T12:46:09.977Z,4.10
2022-11-05T12:49:42.403Z,3.40
2022-11-05T12:53:03.123Z,3.30
2022-11-05T12:55:59.681Z,3.10
2022-11-05T12:58:55.941Z,3.70
2022-11-05T13:01:50.554Z,3.10
2022-11-05T13:04:44.989Z,2.80
2022-11-05T13:07:38.397Z,3.20
2022-11-05T13:10:33.193Z,3.20
2022-11-05T13:13:30.860Z,3.50
2022-11-05T13:16:27.026Z,3.00
2022-11-05T13:19:26.800Z,3.40
2022-11-05T13:22:31.133Z,2.90
2022-11-05T13:25:23.572Z,2.80
2022-11-05T13:28:21.359Z,3.20
2022-11-05T13:31:15.681Z,3.60
2022-11-05T13:34:10.149Z,4.10
2022-11-05T13:37:21.668Z,3.40
2022-11-05T13:40:15.159Z,3.20
2022-11-05T13:43:16.041Z,3.50
2022-11-05T13:46:23.722Z,4.40
2022-11-05T13:49:44.609Z,3.50
2022-11-05T13:52:52.401Z,3.30
2022-11-05T13:55:56.760Z,3.50
2022-11-05T13:59:04.526Z,2.90
2022-11-05T14:01:58.387Z,3.70
2022-11-05T14:04:54.462Z,3.00
2022-11-05T14:07:48.811Z,3.40
2022-11-05T14:10:40.064Z,3.50
2022-11-05T14:13:35.325Z,3.90
2022-11-05T14:16:26.657Z,3.20
2022-11-05T14:19:35.533Z,3.80
2022-11-05T14:22:38.876Z,2.70
2022-11-05T14:26:12.487Z,2.90
2022-11-05T14:29:24.071Z,3.10
2022-11-05T14:32:27.856Z,2.80
2022-11-05T14:35:36.986Z,2.80
2022-11-05T14:38:27.893Z,3.10
2022-11-05T14:41:17.626Z,2.60
2022-11-05T14:44:11.558Z,2.70
2022-11-05T14:47:07.200Z,3.10
2022-11-05T14:50:01.890Z,3.00
2022-11-05T14:52:56.304Z,2.90
2022-11-05T14:55:45.524Z,3.10
2022-11-05T14:58:37.604Z,2.70
2022-11-05T15:01:59.192Z,3.10
2022-11-05T15:04:50.248Z,2.90
2022-11-05T15:07:39.700Z,2.60
2022-11-05T15:10:34.703Z,3.10
2022-11-05T15:13:31.290Z,3.00
2022-11-05T15:16:25.718Z,3.10
2022-11-05T15:19:21.460Z,3.50
2022-11-05T15:22:30.056Z,3.00
2022-11-05T15:25:26.125Z,2.60
2022-11-05T15:28:26.071Z,2.70
2022-11-05T15:31:36.082Z,3.00
2022-11-05T15:34:28.335Z,2.70
2022-11-05T15:37:27.710Z,3.00
2022-11-05T15:40:24.712Z,3.00
2022-11-05T15:43:19.202Z,3.00
2022-11-05T15:46:16.081Z,4.60
2022-11-05T15:49:06.525Z,5.00
2022-11-05T15:54:44.573Z,7.10
2022-11-05T15:57:39.300Z,6.30
2022-11-05T16:00:32.017Z,6.20
2022-11-05T16:03:29.101Z,15.00
2022-11-05T16:06:28.570Z,15.30
2022-11-05T16:09:27.630Z,12.50
2022-11-05T16:12:25.560Z,6.10
2022-11-05T16:15:24.712Z,4.90
2022-11-05T16:18:22.989Z,4.20
2022-11-05T16:21:14.761Z,4.90
2022-11-05T16:24:04.674Z,4.50
2022-11-05T16:27:04.333Z,4.30
2022-11-05T16:29:56.697Z,5.00
2022-11-05T16:32:47.311Z,32.80
2022-11-05T16:35:47.535Z,14.10
2022-11-05T16:38:36.771Z,7.80
2022-11-05T16:41:27.406Z,10.60
2022-11-05T16:44:17.171Z,13.90
2022-11-05T16:47:08.312Z,12.40
2022-11-05T16:49:58.463Z,9.00
2022-11-05T16:52:48.290Z,9.70
2022-11-05T16:55:39.894Z,47.80
2022-11-05T16:58:29.148Z,41.50
2022-11-05T17:01:22.288Z,26.10
2022-11-05T17:04:13.917Z,37.60
2022-11-05T17:07:03.387Z,27.90
2022-11-05T17:09:52.872Z,19.20
2022-11-05T17:12:43.345Z,14.20
2022-11-05T17:15:34.918Z,10.30
2022-11-05T17:18:24.623Z,12.00
2022-11-05T17:21:15.023Z,12.50
2022-11-05T17:24:04.789Z,12.90
2022-11-05T17:26:54.372Z,10.80
2022-11-05T17:29:43.800Z,7.80
2022-11-05T17:32:33.479Z,6.60
2022-11-05T17:35:23.442Z,9.50
2022-11-05T17:38:13.435Z,10.50
2022-11-05T17:41:09.631Z,15.90
2022-11-05T17:43:59.815Z,12.40
2022-11-05T17:46:49.227Z,8.90
2022-11-05T17:49:38.726Z,9.70
2022-11-05T17:52:29.168Z,6.60
2022-11-05T17:58:07.342Z,5.90
2022-11-05T18:00:56.814Z,7.40
2022-11-05T18:03:46.193Z,9.60
2022-11-05T18:06:36.123Z,9.10
2022-11-05T18:09:25.585Z,10.60
2022-11-05T18:12:15.156Z,11.60
2022-11-05T18:15:05.756Z,11.90
2022-11-05T18:17:55.319Z,13.30
2022-11-05T18:20:45.588Z,13.70
2022-11-05T18:23:34.720Z,10.30
2022-11-05T18:26:24.119Z,10.50
2022-11-05T18:29:13.605Z,8.90
2022-11-05T18:32:03.448Z,9.30
2022-11-05T18:34:52.924Z,11.40
2022-11-05T18:37:42.756Z,11.10
2022-11-05T18:40:32.423Z,11.80
2022-11-05T18:43:22.076Z,13.90
2022-11-05T18:46:29.202Z,23.20
2022-11-05T18:49:21.801Z,10.50
2022-11-05T18:52:11.453Z,15.30
2022-11-05T18:55:00.913Z,17.90
2022-11-05T18:57:50.361Z,14.70
2022-11-05T19:00:40.839Z,9.90
2022-11-05T19:03:30.496Z,10.10
2022-11-05T19:06:20.463Z,10.90
2022-11-05T19:09:11.447Z,12.60
2022-11-05T19:12:01.078Z,9.10
2022-11-05T19:14:50.620Z,11.20
2022-11-05T19:17:39.954Z,14.60
2022-11-05T19:20:33.662Z,14.30
2022-11-05T19:23:26.283Z,15.40
2022-11-05T19:26:20.850Z,15.40
2022-11-05T19:29:13.848Z,13.60
2022-11-05T19:32:03.820Z,13.70
2022-11-05T19:34:53.417Z,15.70
2022-11-05T19:37:43.033Z,24.90
2022-11-05T19:40:32.601Z,8.60
2022-11-05T19:43:22.261Z,5.80
2022-11-05T19:46:15.165Z,5.90
2022-11-05T19:49:04.762Z,5.30
2022-11-05T19:51:54.445Z,3.70
2022-11-05T19:54:45.532Z,4.00
2022-11-05T19:57:36.573Z,3.50
2022-11-05T20:00:26.046Z,4.10
2022-11-05T20:03:15.789Z,3.40
2022-11-05T20:06:08.276Z,3.00
2022-11-05T20:09:20.615Z,4.20
2022-11-05T20:12:08.829Z,3.60
2022-11-05T20:14:58.583Z,3.50
2022-11-05T20:17:54.572Z,5.00
2022-11-05T20:20:44.622Z,4.00
2022-11-05T20:26:23.216Z,3.90
2022-11-05T20:29:12.861Z,4.20
2022-11-05T20:32:02.834Z,4.40
2022-11-05T20:34:52.384Z,4.40
2022-11-05T20:37:41.991Z,4.10
2022-11-05T20:40:31.503Z,4.50
2022-11-05T20:43:23.748Z,3.60
2022-11-05T20:46:18.797Z,4.60
2022-11-05T20:49:08.287Z,4.50
2022-11-05T20:51:58.107Z,5.70
2022-11-05T20:54:48.248Z,5.90
2022-11-05T20:57:38.438Z,5.00
2022-11-05T21:00:30.786Z,5.10
2022-11-05T21:03:20.840Z,5.00
2022-11-05T21:06:10.408Z,4.60
2022-11-05T21:09:00.547Z,4.40
2022-11-05T21:12:08.219Z,6.10
2022-11-05T21:14:57.642Z,5.10
2022-11-05T21:17:47.200Z,3.50
2022-11-05T21:20:39.870Z,4.70
2022-11-05T21:23:31.576Z,4.30
2022-11-05T21:26:21.256Z,3.30
2022-11-05T21:29:11.101Z,3.40
2022-11-05T21:32:00.720Z,4.70
2022-11-05T21:34:50.472Z,3.40
2022-11-05T21:37:39.981Z,3.70
2022-11-05T21:40:29.434Z,4.20
2022-11-05T21:43:18.980Z,4.80
2022-11-05T21:46:09.552Z,7.20
2022-11-05T21:48:59.050Z,5.20
2022-11-05T21:52:06.735Z,3.80
2022-11-05T21:55:14.559Z,4.90
2022-11-05T21:58:30.658Z,4.40
2022-11-05T22:01:20.512Z,4.00
2022-11-05T22:04:10.107Z,3.50
2022-11-05T22:07:00.290Z,5.80
2022-11-05T22:09:49.945Z,4.00
2022-11-05T22:12:39.375Z,3.50
2022-11-05T22:15:29.785Z,5.30
2022-11-05T22:21:08.314Z,4.40
2022-11-05T22:23:57.734Z,4.80
2022-11-05T22:26:47.787Z,4.50
2022-11-05T22:29:37.637Z,3.60
2022-11-05T22:32:28.688Z,3.00
2022-11-05T22:35:19.199Z,3.20
2022-11-05T22:38:08.719Z,3.70
2022-11-05T22:40:58.098Z,3.00
2022-11-05T22:43:47.782Z,3.70
2022-11-05T22:46:38.040Z,3.60
2022-11-05T22:49:27.426Z,3.80
2022-11-05T22:52:19.671Z,5.90
2022-11-05T22:55:10.115Z,12.20
2022-11-05T23:00:47.861Z,3.00
2022-11-05T23:03:37.851Z,4.00
2022-11-05T23:06:47.774Z,4.80
2022-11-05T23:09:51.576Z,4.80
2022-11-05T23:12:43.862Z,4.30
2022-11-05T23:15:51.703Z,3.90
2022-11-05T23:18:59.130Z,3.80
2022-11-05T23:22:06.941Z,3.90
2022-11-05T23:24:56.382Z,4.10
2022-11-05T23:27:53.231Z,4.00
2022-11-05T23:30:59.159Z,4.00
2022-11-05T23:33:48.837Z,3.80
2022-11-05T23:36:56.355Z,3.60
2022-11-05T23:39:45.810Z,3.20
2022-11-05T23:42:53.928Z,3.60
2022-11-05T23:46:02.932Z,3.10
2022-11-05T23:48:52.397Z,3.10
2022-11-05T23:51:41.818Z,2.60
2022-11-05T23:54:31.185Z,2.90
2022-11-05T23:57:22.363Z,3.20
